createdAt,value
2019-04-27T00:01:23.374Z,62.25
2019-04-27T00:04:16.207Z,62.53
2019-04-27T00:06:46.552Z,62.76
2019-04-27T00:09:30.011Z,63.19
2019-04-27T00:12:05.730Z,63.53
2019-04-27T00:14:35.461Z,63.64
2019-04-27T00:17:45.764Z,63.62
2019-04-27T00:20:26.687Z,63.67
2019-04-27T00:22:59.327Z,63.71
2019-04-27T00:25:28.939Z,63.75
2019-04-27T00:27:58.412Z,64.12
2019-04-27T00:30:27.937Z,64.19
2019-04-27T00:32:59.206Z,64.34
2019-04-27T00:35:34.940Z,64.37
2019-04-27T00:38:18.348Z,64.63
2019-04-27T00:41:06.745Z,64.70
2019-04-27T00:43:36.234Z,65.11
2019-04-27T00:46:05.819Z,65.28
2019-04-27T00:48:35.292Z,65.33
2019-04-27T00:51:04.772Z,65.40
2019-04-27T00:53:34.283Z,65.64
2019-04-27T00:56:23.585Z,65.81
2019-04-27T00:59:13.649Z,65.95
2019-04-27T01:01:56.113Z,66.00
2019-04-27T01:04:28.127Z,66.15
2019-04-27T01:06:57.600Z,66.30
2019-04-27T01:09:27.511Z,66.31
2019-04-27T01:11:56.984Z,66.68
2019-04-27T01:14:26.503Z,66.86
2019-04-27T01:16:55.994Z,66.95
2019-04-27T01:19:25.503Z,67.12
2019-04-27T01:21:55.005Z,67.12
2019-04-27T01:24:24.465Z,66.99
2019-04-27T01:27:16.092Z,66.91
2019-04-27T01:29:45.581Z,66.80
2019-04-27T01:32:16.225Z,67.09
2019-04-27T01:34:45.712Z,67.39
2019-04-27T01:37:15.215Z,67.63
2019-04-27T01:39:44.686Z,67.73
2019-04-27T01:42:14.198Z,67.80
2019-04-27T01:44:43.679Z,67.74
2019-04-27T01:47:13.167Z,67.71
2019-04-27T01:49:42.647Z,67.87
2019-04-27T01:52:12.124Z,67.93
2019-04-27T01:54:41.602Z,67.96
2019-04-27T01:57:11.166Z,68.05
2019-04-27T01:59:40.647Z,68.42
2019-04-27T02:02:47.289Z,68.56
2019-04-27T02:05:39.838Z,68.76
2019-04-27T02:08:09.549Z,68.89
2019-04-27T02:10:39.627Z,69.20
2019-04-27T02:13:09.227Z,69.40
2019-04-27T02:15:39.587Z,69.72
2019-04-27T02:18:09.531Z,70.15
2019-04-27T02:20:39.181Z,70.44
2019-04-27T02:23:09.225Z,70.55
2019-04-27T02:25:39.682Z,70.64
2019-04-27T02:28:31.197Z,70.93
2019-04-27T02:31:29.766Z,71.14
2019-04-27T02:34:24.031Z,71.63
2019-04-27T02:36:53.559Z,71.62
2019-04-27T02:39:23.037Z,71.60
2019-04-27T02:41:52.607Z,71.71
2019-04-27T02:44:36.772Z,71.66
2019-04-27T02:47:06.409Z,71.82
2019-04-27T02:49:35.904Z,72.09
2019-04-27T02:52:30.086Z,72.32
2019-04-27T02:54:59.717Z,72.49
2019-04-27T02:57:30.110Z,72.48
2019-04-27T03:00:00.198Z,72.66
2019-04-27T03:02:39.506Z,72.74
2019-04-27T03:05:12.872Z,72.93
2019-04-27T03:07:42.749Z,73.08
2019-04-27T03:10:11.413Z,73.16
2019-04-27T03:12:46.104Z,73.17
2019-04-27T03:15:33.496Z,73.18
2019-04-27T03:18:09.879Z,73.16
2019-04-27T03:20:52.918Z,73.18
2019-04-27T03:23:22.460Z,73.23
2019-04-27T03:26:02.284Z,73.02
2019-04-27T03:28:31.769Z,72.89
2019-04-27T03:31:02.484Z,72.69
2019-04-27T03:33:33.047Z,72.69
2019-04-27T03:36:03.327Z,72.74
2019-04-27T03:38:32.966Z,72.77
2019-04-27T03:41:02.487Z,72.86
2019-04-27T03:43:31.970Z,72.91
2019-04-27T03:46:01.551Z,72.74
2019-04-27T03:48:31.024Z,72.53
2019-04-27T03:51:20.029Z,72.21
2019-04-27T03:54:00.200Z,72.34
2019-04-27T03:56:47.307Z,72.64
2019-04-27T03:59:23.391Z,72.82
2019-04-27T04:01:52.899Z,72.64
2019-04-27T04:04:22.406Z,72.52
2019-04-27T04:06:51.921Z,72.42
2019-04-27T04:09:29.629Z,72.30
2019-04-27T04:12:09.597Z,71.69
2019-04-27T04:14:42.441Z,71.00
2019-04-27T04:17:12.882Z,70.57
2019-04-27T04:19:53.896Z,70.15
2019-04-27T04:22:13.856Z,69.59
2019-04-27T04:24:43.335Z,69.17
2019-04-27T04:27:12.833Z,68.30
2019-04-27T04:29:42.323Z,67.08
2019-04-27T04:32:11.815Z,65.62
2019-04-27T04:34:41.286Z,65.74
2019-04-27T04:37:10.777Z,64.12
2019-04-27T04:39:40.722Z,63.41
2019-04-27T04:42:29.963Z,62.71
2019-04-27T04:45:20.259Z,62.49
2019-04-27T04:47:54.238Z,61.91
2019-04-27T04:50:23.702Z,62.41
2019-04-27T04:52:53.179Z,62.53
2019-04-27T04:55:22.666Z,62.92
2019-04-27T04:57:52.157Z,63.08
2019-04-27T05:00:21.687Z,63.49
2019-04-27T05:02:51.173Z,63.87
2019-04-27T05:05:20.706Z,64.13
2019-04-27T05:07:50.213Z,64.46
2019-04-27T05:10:19.715Z,63.86
2019-04-27T05:12:50.454Z,63.35
2019-04-27T05:15:20.757Z,62.79
2019-04-27T05:17:51.052Z,62.18
2019-04-27T05:20:51.887Z,62.19
2019-04-27T05:23:21.384Z,62.04
2019-04-27T05:25:50.890Z,61.88
2019-04-27T05:28:20.346Z,61.76
2019-04-27T05:30:49.863Z,61.61
2019-04-27T05:33:19.363Z,62.06
2019-04-27T05:35:49.273Z,61.90
2019-04-27T05:38:19.460Z,61.89
2019-04-27T05:40:49.903Z,62.04
2019-04-27T05:43:25.543Z,61.53
2019-04-27T05:46:39.636Z,60.35
2019-04-27T05:49:13.797Z,61.09
2019-04-27T05:51:43.231Z,60.40
2019-04-27T05:54:12.712Z,60.36
2019-04-27T05:56:42.213Z,60.29
2019-04-27T05:59:14.551Z,60.46
2019-04-27T06:01:42.921Z,60.45
2019-04-27T06:04:12.503Z,59.80
2019-04-27T06:06:41.961Z,59.46
2019-04-27T06:09:11.438Z,59.23
2019-04-27T06:11:40.930Z,59.49
2019-04-27T06:14:10.419Z,59.12
2019-04-27T06:16:39.880Z,58.72
2019-04-27T06:19:09.709Z,58.47
2019-04-27T06:21:40.108Z,58.27
2019-04-27T06:24:09.944Z,58.09
2019-04-27T06:26:40.119Z,57.87
2019-04-27T06:29:09.693Z,57.98
2019-04-27T06:31:39.790Z,57.64
2019-04-27T06:34:09.923Z,57.66
2019-04-27T06:36:39.566Z,57.61
2019-04-27T06:39:10.050Z,57.65
2019-04-27T06:41:40.137Z,57.75
2019-04-27T06:44:11.423Z,57.07
2019-04-27T06:46:41.249Z,57.01
2019-04-27T06:49:11.373Z,56.71
2019-04-27T06:51:40.888Z,55.81
2019-04-27T06:54:10.385Z,56.24
2019-04-27T06:56:39.891Z,56.12
2019-04-27T06:59:09.496Z,56.21
2019-04-27T07:01:39.161Z,55.48
2019-04-27T07:04:10.793Z,55.04
2019-04-27T07:06:52.807Z,54.73
2019-04-27T07:09:11.616Z,53.81
2019-04-27T07:11:41.128Z,53.13
2019-04-27T07:14:11.611Z,52.75
2019-04-27T07:16:41.370Z,52.32
2019-04-27T07:19:10.879Z,52.12
2019-04-27T07:21:40.426Z,51.90
2019-04-27T07:24:09.929Z,52.18
2019-04-27T07:26:39.586Z,52.29
2019-04-27T07:29:09.711Z,51.98
2019-04-27T07:31:40.097Z,52.40
2019-04-27T07:34:09.803Z,53.03
2019-04-27T07:36:39.513Z,53.18
2019-04-27T07:39:11.626Z,52.30
2019-04-27T07:41:41.216Z,52.29
2019-04-27T07:44:29.662Z,52.59
2019-04-27T07:47:19.641Z,52.48
2019-04-27T07:49:49.771Z,52.44
2019-04-27T07:52:20.587Z,52.55
2019-04-27T07:54:50.255Z,52.72
2019-04-27T07:57:20.032Z,52.03
2019-04-27T07:59:50.342Z,51.98
2019-04-27T08:02:19.940Z,51.55
2019-04-27T08:04:50.526Z,51.59
2019-04-27T08:07:20.142Z,52.00
2019-04-27T08:09:49.903Z,51.92
2019-04-27T08:12:20.906Z,51.76
2019-04-27T08:14:50.567Z,51.52
2019-04-27T08:17:20.150Z,51.30
2019-04-27T08:19:49.882Z,50.77
2019-04-27T08:22:19.681Z,50.36
2019-04-27T08:24:49.829Z,50.74
2019-04-27T08:27:40.776Z,50.46
2019-04-27T08:30:22.026Z,50.54
2019-04-27T08:32:52.045Z,51.01
2019-04-27T08:35:22.011Z,50.32
2019-04-27T08:37:52.208Z,49.86
2019-04-27T08:40:22.002Z,49.51
2019-04-27T08:42:51.588Z,49.06
2019-04-27T08:45:21.238Z,48.77
2019-04-27T08:47:50.776Z,48.71
2019-04-27T08:50:20.313Z,48.58
2019-04-27T08:52:50.357Z,48.25
2019-04-27T08:55:19.992Z,48.50
2019-04-27T08:57:49.565Z,49.01
2019-04-27T09:00:20.085Z,48.20
2019-04-27T09:02:50.440Z,47.91
2019-04-27T09:05:25.764Z,47.87
2019-04-27T09:08:19.196Z,48.02
2019-04-27T09:11:10.569Z,47.71
2019-04-27T09:14:04.851Z,47.56
2019-04-27T09:16:43.446Z,47.29
2019-04-27T09:19:22.175Z,47.38
2019-04-27T09:22:13.594Z,46.81
2019-04-27T09:24:37.049Z,46.83
2019-04-27T09:27:06.972Z,46.66
2019-04-27T09:29:36.532Z,46.29
2019-04-27T09:32:06.337Z,46.29
2019-04-27T09:34:36.674Z,45.74
2019-04-27T09:37:06.352Z,45.64
2019-04-27T09:39:35.988Z,45.57
2019-04-27T09:42:06.492Z,46.09
2019-04-27T09:44:37.049Z,45.84
2019-04-27T09:47:06.763Z,45.20
2019-04-27T09:49:38.224Z,44.82
2019-04-27T09:52:07.503Z,44.67
2019-04-27T09:54:37.078Z,44.29
2019-04-27T09:57:07.146Z,44.29
2019-04-27T09:59:39.340Z,43.92
2019-04-27T10:02:08.716Z,43.23
2019-04-27T10:04:38.430Z,43.00
2019-04-27T10:07:07.923Z,42.91
2019-04-27T10:09:37.470Z,42.94
2019-04-27T10:12:07.787Z,43.06
2019-04-27T10:14:37.413Z,42.68
2019-04-27T10:17:06.915Z,42.14
2019-04-27T10:19:36.688Z,42.29
2019-04-27T10:22:06.460Z,42.23
2019-04-27T10:24:35.992Z,42.60
2019-04-27T10:27:07.945Z,42.95
2019-04-27T10:29:37.616Z,43.06
2019-04-27T10:32:07.225Z,42.76
2019-04-27T10:34:36.726Z,42.36
2019-04-27T10:37:06.271Z,41.95
2019-04-27T10:39:36.219Z,41.98
2019-04-27T10:42:06.803Z,41.88
2019-04-27T10:44:36.433Z,41.54
2019-04-27T10:47:06.083Z,41.12
2019-04-27T10:49:35.674Z,41.14
2019-04-27T10:52:05.899Z,40.44
2019-04-27T10:54:35.507Z,40.21
2019-04-27T10:57:06.075Z,40.30
2019-04-27T10:59:36.157Z,40.56
2019-04-27T11:02:05.787Z,40.67
2019-04-27T11:04:59.263Z,40.43
2019-04-27T11:07:32.988Z,39.85
2019-04-27T11:10:02.492Z,38.65
2019-04-27T11:12:32.028Z,38.96
2019-04-27T11:15:01.660Z,39.28
2019-04-27T11:17:31.155Z,39.02
2019-04-27T11:20:02.767Z,38.91
2019-04-27T11:22:31.890Z,39.57
2019-04-27T11:25:01.399Z,39.28
2019-04-27T11:27:30.910Z,38.89
2019-04-27T11:30:01.009Z,38.59
2019-04-27T11:32:30.495Z,38.36
2019-04-27T11:35:30.216Z,37.65
2019-04-27T11:38:00.025Z,37.95
2019-04-27T11:40:30.425Z,38.18
2019-04-27T11:42:59.919Z,37.91
2019-04-27T11:45:29.432Z,37.08
2019-04-27T11:47:58.953Z,36.61
2019-04-27T11:50:28.571Z,37.08
2019-04-27T11:52:58.039Z,37.09
2019-04-27T11:55:27.528Z,37.40
2019-04-27T11:57:57.016Z,38.06
2019-04-27T12:00:27.741Z,38.51
2019-04-27T12:02:57.354Z,39.09
2019-04-27T12:05:26.871Z,39.35
2019-04-27T12:07:56.400Z,39.45
2019-04-27T12:10:26.386Z,38.54
2019-04-27T12:12:56.383Z,38.72
2019-04-27T12:15:26.403Z,39.47
2019-04-27T12:17:56.342Z,39.66
2019-04-27T12:20:26.063Z,40.39
2019-04-27T12:22:55.515Z,41.37
2019-04-27T12:25:24.997Z,42.08
2019-04-27T12:28:10.022Z,42.94
2019-04-27T12:31:09.078Z,43.57
2019-04-27T12:33:38.829Z,42.57
2019-04-27T12:36:08.401Z,43.12
2019-04-27T12:38:37.908Z,45.94
2019-04-27T12:41:07.400Z,50.90
2019-04-27T12:43:37.490Z,53.77
2019-04-27T12:46:07.255Z,56.49
2019-04-27T12:48:38.027Z,59.15
2019-04-27T12:51:07.616Z,60.81
2019-04-27T12:54:05.953Z,61.12
2019-04-27T12:56:55.872Z,60.43
2019-04-27T12:59:44.233Z,61.78
2019-04-27T13:02:13.875Z,61.55
2019-04-27T13:04:43.352Z,61.89
2019-04-27T13:07:12.829Z,63.28
2019-04-27T13:09:42.325Z,63.40
2019-04-27T13:12:11.863Z,64.28
2019-04-27T13:14:41.369Z,62.76
2019-04-27T13:17:10.884Z,61.08
2019-04-27T13:19:42.585Z,61.85
2019-04-27T13:22:12.176Z,61.09
2019-04-27T13:24:41.637Z,60.61
2019-04-27T13:27:11.219Z,60.81
2019-04-27T13:29:40.770Z,59.94
2019-04-27T13:32:10.257Z,57.41
2019-04-27T13:34:39.718Z,57.94
2019-04-27T13:37:34.190Z,57.66
2019-04-27T13:40:09.236Z,59.14
2019-04-27T13:42:39.097Z,60.64
2019-04-27T13:45:13.667Z,60.33
2019-04-27T13:47:56.239Z,59.09
2019-04-27T13:50:32.051Z,58.73
2019-04-27T13:53:01.560Z,57.20
2019-04-27T13:55:31.423Z,56.45
2019-04-27T13:58:00.894Z,57.75
2019-04-27T14:00:30.367Z,58.67
2019-04-27T14:02:59.864Z,58.15
2019-04-27T14:05:29.369Z,58.46
2019-04-27T14:07:59.214Z,58.47
2019-04-27T14:10:28.771Z,59.24
2019-04-27T14:12:59.060Z,58.46
2019-04-27T14:15:28.958Z,58.99
2019-04-27T14:17:59.207Z,60.07
2019-04-27T14:20:28.839Z,60.02
2019-04-27T14:23:12.806Z,60.40
2019-04-27T14:25:42.308Z,59.87
2019-04-27T14:28:11.786Z,61.26
2019-04-27T14:30:41.250Z,62.26
2019-04-27T14:33:10.755Z,63.71
2019-04-27T14:35:40.265Z,64.31
2019-04-27T14:38:09.748Z,64.64
2019-04-27T14:40:39.311Z,67.75
2019-04-27T14:43:08.842Z,70.59
2019-04-27T14:45:39.773Z,71.19
2019-04-27T14:48:09.309Z,69.68
2019-04-27T14:50:40.513Z,70.05
2019-04-27T14:53:10.083Z,71.43
2019-04-27T14:55:39.569Z,77.62
2019-04-27T14:58:09.040Z,78.76
2019-04-27T15:00:38.586Z,81.63
2019-04-27T15:03:08.088Z,86.28
2019-04-27T15:05:37.581Z,87.34
2019-04-27T15:08:09.735Z,85.18
2019-04-27T15:10:38.276Z,81.85
2019-04-27T15:13:08.378Z,83.63
2019-04-27T15:15:38.270Z,84.25
2019-04-27T15:18:09.589Z,83.35
2019-04-27T15:20:44.549Z,84.72
2019-04-27T15:23:14.033Z,86.24
2019-04-27T15:25:46.793Z,87.48
2019-04-27T15:28:17.522Z,88.05
2019-04-27T15:31:05.954Z,89.50
2019-04-27T15:33:54.691Z,90.02
2019-04-27T15:36:43.360Z,89.69
2019-04-27T15:39:22.437Z,90.75
2019-04-27T15:41:54.797Z,90.91
2019-04-27T15:44:24.388Z,90.94
2019-04-27T15:46:53.854Z,90.72
2019-04-27T15:49:23.362Z,90.72
2019-04-27T15:51:54.796Z,90.83
2019-04-27T15:54:29.029Z,90.93
2019-04-27T15:56:55.495Z,91.15
2019-04-27T15:59:31.052Z,90.94
2019-04-27T16:01:59.543Z,90.68
2019-04-27T16:04:29.147Z,90.10
2019-04-27T16:07:00.585Z,89.97
2019-04-27T16:09:29.977Z,89.39
2019-04-27T16:12:09.947Z,88.55
2019-04-27T16:14:30.847Z,88.33
2019-04-27T16:17:03.107Z,87.21
2019-04-27T16:19:31.715Z,87.05
2019-04-27T16:22:01.246Z,87.41
2019-04-27T16:24:30.802Z,87.55
2019-04-27T16:27:00.323Z,88.50
2019-04-27T16:29:31.645Z,87.68
2019-04-27T16:32:02.811Z,88.10
2019-04-27T16:34:33.121Z,88.28
2019-04-27T16:37:03.977Z,88.11
2019-04-27T16:39:33.465Z,88.58
2019-04-27T16:42:03.010Z,89.97
2019-04-27T16:44:32.544Z,89.22
2019-04-27T16:47:02.033Z,89.05
2019-04-27T16:49:31.564Z,89.50
2019-04-27T16:52:01.070Z,89.46
2019-04-27T16:54:30.651Z,89.56
2019-04-27T16:57:05.216Z,89.58
2019-04-27T16:59:43.083Z,89.14
2019-04-27T17:02:02.806Z,89.35
2019-04-27T17:04:32.405Z,89.69
2019-04-27T17:07:01.980Z,90.35
2019-04-27T17:09:36.211Z,88.83
2019-04-27T17:12:02.950Z,88.41
2019-04-27T17:14:46.449Z,88.77
2019-04-27T17:17:33.084Z,88.71
2019-04-27T17:20:03.855Z,88.67
2019-04-27T17:22:33.359Z,88.94
2019-04-27T17:25:02.879Z,89.30
2019-04-27T17:27:38.435Z,88.64
2019-04-27T17:30:09.070Z,88.47
2019-04-27T17:32:56.204Z,88.43
2019-04-27T17:35:25.700Z,88.67
2019-04-27T17:37:55.237Z,89.25
2019-04-27T17:40:24.719Z,88.80
2019-04-27T17:42:54.174Z,88.17
2019-04-27T17:45:23.761Z,87.90
2019-04-27T17:47:53.382Z,87.89
2019-04-27T17:50:25.125Z,88.10
2019-04-27T17:52:55.319Z,88.43
2019-04-27T17:55:25.631Z,88.13
2019-04-27T17:57:58.938Z,87.58
2019-04-27T18:00:28.107Z,87.51
2019-04-27T18:02:58.019Z,87.08
2019-04-27T18:05:28.557Z,86.80
2019-04-27T18:07:58.216Z,85.80
2019-04-27T18:10:28.261Z,86.26
2019-04-27T18:12:58.258Z,86.52
2019-04-27T18:15:28.719Z,85.95
2019-04-27T18:18:01.150Z,85.58
2019-04-27T18:20:30.612Z,85.52
2019-04-27T18:23:14.740Z,85.72
2019-04-27T18:25:44.155Z,86.02
2019-04-27T18:28:18.960Z,86.21
2019-04-27T18:31:07.538Z,85.98
2019-04-27T18:33:38.713Z,85.97
2019-04-27T18:36:13.778Z,85.99
2019-04-27T18:38:39.457Z,86.20
2019-04-27T18:41:11.799Z,86.04
2019-04-27T18:43:46.453Z,86.16
2019-04-27T18:46:14.961Z,86.66
2019-04-27T18:49:01.667Z,87.68
2019-04-27T18:51:48.788Z,87.53
2019-04-27T18:54:18.492Z,87.85
2019-04-27T18:57:01.474Z,88.24
2019-04-27T18:59:19.151Z,88.46
2019-04-27T19:01:49.001Z,88.53
2019-04-27T19:04:19.015Z,88.49
2019-04-27T19:06:48.555Z,88.39
2019-04-27T19:09:18.733Z,88.88
2019-04-27T19:11:56.136Z,89.34
2019-04-27T19:14:19.500Z,89.61
2019-04-27T19:16:49.028Z,89.58
2019-04-27T19:19:19.014Z,89.35
2019-04-27T19:21:48.771Z,89.25
2019-04-27T19:24:19.218Z,89.19
2019-04-27T19:26:55.078Z,88.99
2019-04-27T19:29:29.226Z,88.93
2019-04-27T19:32:00.630Z,89.39
2019-04-27T19:34:30.206Z,89.75
2019-04-27T19:36:59.676Z,89.68
2019-04-27T19:39:29.182Z,89.54
2019-04-27T19:42:03.036Z,89.54
2019-04-27T19:44:30.013Z,89.54
2019-04-27T19:47:00.152Z,89.77
2019-04-27T19:49:31.723Z,89.71
2019-04-27T19:52:01.091Z,89.57
2019-04-27T19:54:30.595Z,88.74
2019-04-27T19:57:00.093Z,87.98
2019-04-27T19:59:41.622Z,87.46
2019-04-27T20:02:15.064Z,87.58
2019-04-27T20:04:48.018Z,87.90
2019-04-27T20:07:18.102Z,88.12
2019-04-27T20:09:58.352Z,87.73
2019-04-27T20:12:27.965Z,87.57
2019-04-27T20:14:57.554Z,87.39
2019-04-27T20:17:31.805Z,86.70
2019-04-27T20:20:01.573Z,86.70
2019-04-27T20:22:31.210Z,86.96
2019-04-27T20:25:01.943Z,87.20
2019-04-27T20:27:45.253Z,87.60
2019-04-27T20:30:03.458Z,88.23
2019-04-27T20:32:33.063Z,88.46
2019-04-27T20:35:02.568Z,88.58
2019-04-27T20:37:32.051Z,88.90
2019-04-27T20:40:01.835Z,89.30
2019-04-27T20:42:31.785Z,89.97
2019-04-27T20:45:02.052Z,90.28
2019-04-27T20:47:32.328Z,90.69
2019-04-27T20:50:01.828Z,90.90
2019-04-27T20:52:56.362Z,90.31
2019-04-27T20:55:25.912Z,88.99
2019-04-27T20:58:01.819Z,88.22
2019-04-27T21:00:26.658Z,87.75
2019-04-27T21:03:20.766Z,87.44
2019-04-27T21:06:27.312Z,87.38
2019-04-27T21:08:56.820Z,87.54
2019-04-27T21:11:30.854Z,88.03
2019-04-27T21:14:01.005Z,88.27
2019-04-27T21:16:31.356Z,87.92
2019-04-27T21:19:02.005Z,87.89
2019-04-27T21:21:32.136Z,88.12
2019-04-27T21:24:01.677Z,88.04
2019-04-27T21:26:32.238Z,88.40
2019-04-27T21:29:01.687Z,88.69
2019-04-27T21:31:31.670Z,88.76
2019-04-27T21:34:01.228Z,88.77
2019-04-27T21:36:31.051Z,88.78
2019-04-27T21:39:01.495Z,88.90
2019-04-27T21:41:31.257Z,88.96
2019-04-27T21:44:01.413Z,88.98
2019-04-27T21:46:31.624Z,89.11
2019-04-27T21:49:02.084Z,89.02
2019-04-27T21:51:33.408Z,89.01
2019-04-27T21:54:18.434Z,89.18
2019-04-27T21:56:47.947Z,89.26
2019-04-27T21:59:17.444Z,88.94
2019-04-27T22:01:47.222Z,89.02
2019-04-27T22:04:16.697Z,89.02
2019-04-27T22:06:46.160Z,88.94
2019-04-27T22:09:15.694Z,88.79
2019-04-27T22:11:45.282Z,88.28
2019-04-27T22:14:14.797Z,87.76
2019-04-27T22:16:44.309Z,87.81
2019-04-27T22:19:13.803Z,87.47
2019-04-27T22:21:43.262Z,87.40
2019-04-27T22:24:35.234Z,86.60
2019-04-27T22:27:04.708Z,86.21
2019-04-27T22:29:34.876Z,85.63
2019-04-27T22:32:04.468Z,85.12
2019-04-27T22:34:33.925Z,84.53
2019-04-27T22:37:03.457Z,84.26
2019-04-27T22:39:39.348Z,83.86
2019-04-27T22:42:41.963Z,83.88
2019-04-27T22:45:18.986Z,83.49
2019-04-27T22:47:48.454Z,83.93
2019-04-27T22:50:17.926Z,83.98
2019-04-27T22:52:47.404Z,84.57
2019-04-27T22:55:17.002Z,85.66
2019-04-27T22:57:51.979Z,86.28
2019-04-27T23:00:43.473Z,86.66
2019-04-27T23:03:17.744Z,87.08
2019-04-27T23:05:47.213Z,86.83
2019-04-27T23:08:16.746Z,86.99
2019-04-27T23:10:46.221Z,87.00
2019-04-27T23:13:15.708Z,85.74
2019-04-27T23:15:47.584Z,84.70
2019-04-27T23:18:17.074Z,83.77
2019-04-27T23:20:46.578Z,83.18
2019-04-27T23:23:16.050Z,83.17
2019-04-27T23:25:45.583Z,83.33
2019-04-27T23:28:15.087Z,85.16
2019-04-27T23:31:02.318Z,87.76
2019-04-27T23:33:31.494Z,89.86
2019-04-27T23:36:01.535Z,90.63
2019-04-27T23:38:31.150Z,91.62
2019-04-27T23:41:01.796Z,93.08
2019-04-27T23:43:31.443Z,94.61
2019-04-27T23:46:01.680Z,94.84
2019-04-27T23:48:32.166Z,94.86
2019-04-27T23:51:11.902Z,95.00
2019-04-27T23:53:41.830Z,95.32
2019-04-27T23:56:11.364Z,95.47
2019-04-27T23:58:40.873Z,95.37
